Time;durP1;ratioP1;P1;durP2;ratioP2;P2;SDS_P1;SDS_P2;PMS_P1;PMS_P2;Temp;Humidity;BMP_temperature;BMP_pressure;BME280_temperature;BME280_humidity;BME280_pressure;Samples;Min_cycle;Max_cycle;Signal;HPM_P1;HPM_P2
2022/05/02 00:00:37;;;;;;;13.00;12.00;;;12.40;99.90;;;;;;10296945;28;20282;-80
2022/05/02 00:05:41;;;;;;;14.37;13.27;;;12.40;99.90;;;;;;10292296;28;20310;-80
2022/05/02 00:10:43;;;;;;;14.20;13.00;;;12.40;99.90;;;;;;10292613;28;20199;-80
2022/05/02 00:15:46;;;;;;;14.20;13.00;;;12.30;99.90;;;;;;10308376;28;20224;-80
2022/05/02 00:20:49;;;;;;;13.67;12.57;;;12.30;99.90;;;;;;10305396;28;20568;-80
2022/05/02 00:25:51;;;;;;;13.37;12.27;;;12.30;99.90;;;;;;10302086;28;20274;-80
2022/05/02 00:30:54;;;;;;;13.97;12.57;;;12.20;99.90;;;;;;10322761;28;20278;-80
2022/05/02 00:35:57;;;;;;;13.97;12.77;;;12.20;99.90;;;;;;10299178;28;20232;-80
2022/05/02 00:40:59;;;;;;;13.57;12.47;;;12.20;99.90;;;;;;10280639;28;20211;-80
2022/05/02 00:46:01;;;;;;;14.10;12.83;;;12.20;99.90;;;;;;10287089;28;21355;-80
2022/05/02 00:51:05;;;;;;;12.50;11.50;;;12.20;99.90;;;;;;10299310;28;20299;-80
2022/05/02 00:56:07;;;;;;;13.60;12.53;;;12.20;99.90;;;;;;10295286;28;20226;-80
2022/05/02 01:01:09;;;;;;;14.70;13.50;;;12.20;99.90;;;;;;10302280;28;20220;-80
2022/05/02 01:11:44;;;;;;;12.83;11.73;;;12.20;99.90;;;;;;10217146;28;20255;-80
2022/05/02 01:16:46;;;;;;;14.67;13.40;;;12.10;99.90;;;;;;10301436;28;20200;-81
2022/05/02 01:21:50;;;;;;;14.27;13.17;;;12.10;99.90;;;;;;10296110;28;20223;-79
2022/05/02 01:26:52;;;;;;;15.07;13.57;;;12.10;99.90;;;;;;10302537;28;20195;-79
2022/05/02 01:31:55;;;;;;;14.10;13.00;;;12.10;99.90;;;;;;10293959;28;20231;-79
2022/05/02 01:36:58;;;;;;;15.00;13.80;;;12.20;99.90;;;;;;10299259;28;20548;-78
2022/05/02 01:42:01;;;;;;;14.50;13.30;;;12.30;99.90;;;;;;10303948;28;20224;-78
2022/05/02 01:47:04;;;;;;;14.43;13.17;;;12.30;99.90;;;;;;10303233;28;20245;-78
2022/05/02 01:52:08;;;;;;;14.63;13.43;;;12.30;99.90;;;;;;10294452;28;20207;-78
2022/05/02 01:57:10;;;;;;;14.53;13.33;;;12.30;99.90;;;;;;10277313;28;20203;-78
2022/05/02 02:02:12;;;;;;;14.20;13.00;;;12.30;99.90;;;;;;10290133;28;20223;-78
2022/05/02 02:07:15;;;;;;;14.03;12.93;;;12.30;99.90;;;;;;10277705;28;20262;-78
2022/05/02 02:12:17;;;;;;;14.63;13.13;;;12.30;99.90;;;;;;10309401;28;21061;-78
2022/05/02 02:17:20;;;;;;;14.53;13.43;;;12.30;99.90;;;;;;10303092;28;20649;-79
2022/05/02 02:22:23;;;;;;;14.17;13.07;;;12.30;99.90;;;;;;10311442;28;20570;-78
2022/05/02 02:27:25;;;;;;;15.20;13.90;;;12.30;99.90;;;;;;10303059;28;20207;-78
2022/05/02 02:32:30;;;;;;;15.27;14.07;;;12.20;99.90;;;;;;10298029;28;20230;-79
2022/05/02 02:37:33;;;;;;;15.37;14.00;;;12.20;99.90;;;;;;10308269;28;20214;-79
2022/05/02 02:42:36;;;;;;;15.43;14.23;;;12.30;99.90;;;;;;10283555;28;20231;-78
2022/05/02 02:47:38;;;;;;;16.63;15.13;;;12.30;99.90;;;;;;10297855;28;20227;-78
2022/05/02 02:52:42;;;;;;;15.77;14.40;;;12.30;99.90;;;;;;10298159;28;20219;-78
2022/05/02 02:57:44;;;;;;;15.10;13.90;;;12.30;99.90;;;;;;10296464;28;20264;-78
2022/05/02 03:02:46;;;;;;;14.60;13.30;;;12.40;99.90;;;;;;10271899;28;20224;-78
2022/05/02 03:07:53;;;;;;;16.73;15.37;;;12.40;99.90;;;;;;10295182;28;20245;-78
2022/05/02 03:12:56;;;;;;;16.60;15.20;;;12.40;99.90;;;;;;10310544;28;20223;-78
2022/05/02 03:17:58;;;;;;;16.30;14.67;;;12.40;99.90;;;;;;10290998;28;20200;-78
2022/05/02 03:23:01;;;;;;;14.27;13.07;;;12.40;99.90;;;;;;10286191;28;20314;-78
2022/05/02 03:28:04;;;;;;;15.67;14.37;;;12.50;99.90;;;;;;10305141;28;20564;-78
2022/05/02 03:33:06;;;;;;;15.00;13.80;;;12.50;99.90;;;;;;10302494;28;20581;-78
2022/05/02 03:38:10;;;;;;;14.57;13.47;;;12.50;99.90;;;;;;10281790;28;20290;-78
2022/05/02 03:43:12;;;;;;;15.20;14.00;;;12.50;99.90;;;;;;10301307;28;20313;-78
2022/05/02 03:48:14;;;;;;;16.33;14.70;;;12.60;99.90;;;;;;10311038;28;20196;-78
2022/05/02 03:53:18;;;;;;;15.40;14.03;;;12.60;99.90;;;;;;10295133;28;20216;-78
2022/05/02 03:58:20;;;;;;;16.70;15.30;;;12.70;99.90;;;;;;10305401;28;20208;-78
2022/05/02 04:03:22;;;;;;;16.37;14.97;;;12.70;99.90;;;;;;10305690;28;20741;-79
2022/05/02 04:08:26;;;;;;;16.03;14.63;;;12.80;99.90;;;;;;10284521;28;20304;-78
2022/05/02 04:13:28;;;;;;;16.67;15.17;;;12.80;99.90;;;;;;10287714;28;20238;-78
2022/05/02 04:18:30;;;;;;;17.77;16.27;;;12.80;99.90;;;;;;10287314;28;20636;-78
2022/05/02 04:23:34;;;;;;;18.33;16.80;;;12.90;99.90;;;;;;10281006;28;20241;-79
2022/05/02 04:28:36;;;;;;;17.77;16.20;;;12.90;99.90;;;;;;10306947;28;20286;-78
2022/05/02 04:33:39;;;;;;;16.97;15.47;;;12.90;99.90;;;;;;10269282;28;20235;-78
2022/05/02 04:38:43;;;;;;;16.03;14.83;;;13.00;99.90;;;;;;10273675;28;20588;-79
2022/05/02 04:43:51;;;;;;;17.10;15.47;;;13.00;99.90;;;;;;10281487;28;20311;-79
2022/05/02 04:48:53;;;;;;;17.97;16.57;;;13.10;99.90;;;;;;10274402;28;20207;-79
2022/05/02 04:53:56;;;;;;;18.80;17.10;;;13.00;99.90;;;;;;10292782;28;20403;-80
2022/05/02 04:58:58;;;;;;;19.97;18.27;;;13.00;99.90;;;;;;10284239;28;20212;-80
2022/05/02 05:04:00;;;;;;;16.40;14.90;;;13.00;99.90;;;;;;10285931;28;20246;-80
2022/05/02 05:09:05;;;;;;;18.93;17.20;;;12.90;99.90;;;;;;10317795;28;20203;-80
2022/05/02 05:20:02;;;;;;;18.23;16.63;;;12.90;99.90;;;;;;10299120;28;20208;-80
2022/05/02 05:25:29;;;;;;;20.97;18.97;;;12.80;99.90;;;;;;10295593;28;20305;-80
2022/05/02 05:30:41;;;;;;;19.10;17.50;;;12.80;99.90;;;;;;10283665;28;20200;-80
2022/05/02 05:35:58;;;;;;;19.70;18.10;;;12.80;99.90;;;;;;10377019;23;20638;-85
2022/05/02 05:41:11;;;;;;;21.60;19.63;;;12.90;99.90;;;;;;10323312;28;20284;-86
2022/05/02 05:46:30;;;;;;;22.37;20.17;;;12.90;99.90;;;;;;10321199;28;20226;-83
2022/05/02 05:51:35;;;;;;;21.33;19.43;;;12.90;99.90;;;;;;10315927;28;20577;-83
2022/05/02 05:56:51;;;;;;;22.87;20.63;;;13.00;99.90;;;;;;10314060;28;20211;-83
2022/05/02 06:02:06;;;;;;;25.13;22.83;;;13.10;99.90;;;;;;10346816;28;20225;-83
2022/05/02 06:07:09;;;;;;;26.20;23.77;;;13.20;99.90;;;;;;10337041;28;20199;-81
2022/05/02 06:12:14;;;;;;;25.47;23.03;;;13.30;99.90;;;;;;10315767;28;20222;-83
2022/05/02 06:22:37;;;;;;;26.23;23.80;;;13.40;99.90;;;;;;10321616;28;20223;-81
2022/05/02 06:27:43;;;;;;;24.97;22.67;;;13.50;99.90;;;;;;10328190;28;20627;-82
2022/05/02 06:32:45;;;;;;;25.47;23.10;;;13.60;99.90;;;;;;10321175;28;20774;-82
2022/05/02 06:37:51;;;;;;;26.77;24.30;;;13.70;99.90;;;;;;10332852;28;20266;-80
2022/05/02 06:43:05;;;;;;;26.53;23.77;;;13.80;99.90;;;;;;10323588;28;20274;-80
2022/05/02 06:48:36;;;;;;;26.20;23.80;;;13.90;99.90;;;;;;10311098;28;20594;-82
2022/05/02 06:54:15;;;;;;;25.67;23.37;;;14.00;99.90;;;;;;10332337;28;20559;-82
2022/05/02 06:59:40;;;;;;;25.03;22.83;;;14.10;99.90;;;;;;10339983;28;20214;-82
2022/05/02 07:04:48;;;;;;;24.47;22.20;;;14.20;99.90;;;;;;10337983;28;20725;-81
2022/05/02 07:09:53;;;;;;;25.53;23.07;;;14.30;99.90;;;;;;10320483;28;20208;-81
2022/05/02 07:15:12;;;;;;;25.20;22.40;;;14.40;99.90;;;;;;10336923;28;20226;-81
2022/05/02 07:20:19;;;;;;;25.37;22.80;;;14.60;99.90;;;;;;10317337;28;20245;-83
2022/05/02 07:25:22;;;;;;;23.97;21.67;;;14.80;99.90;;;;;;10335726;28;20215;-82
2022/05/02 07:30:26;;;;;;;22.67;20.70;;;14.90;99.90;;;;;;10331735;28;20191;-83
2022/05/02 07:35:30;;;;;;;23.40;21.30;;;15.10;99.90;;;;;;10321318;28;20239;-83
2022/05/02 07:40:33;;;;;;;22.93;20.70;;;15.40;99.90;;;;;;10338829;28;20211;-85
2022/05/02 07:45:37;;;;;;;22.23;20.20;;;15.60;99.90;;;;;;10339597;28;20227;-84
2022/05/02 07:50:39;;;;;;;22.00;20.00;;;15.90;99.90;;;;;;10339806;28;20210;-84
2022/05/02 07:55:45;;;;;;;23.20;21.00;;;16.10;99.90;;;;;;10325970;28;20223;-83
2022/05/02 08:00:49;;;;;;;21.60;19.63;;;16.30;99.90;;;;;;10325553;28;20310;-84
2022/05/02 08:05:59;;;;;;;21.20;19.43;;;16.50;99.90;;;;;;10325501;28;20242;-82
2022/05/02 08:11:12;;;;;;;17.73;16.10;;;16.70;99.90;;;;;;10344593;28;20753;-85
2022/05/02 08:16:24;;;;;;;19.43;17.73;;;16.90;99.90;;;;;;10345919;28;20246;-82
2022/05/02 08:21:33;;;;;;;18.97;17.37;;;17.10;99.90;;;;;;10343351;28;20589;-84
2022/05/02 08:32:28;;;;;;;18.00;16.20;;;17.60;99.90;;;;;;10318873;28;20232;-84
2022/05/02 08:38:00;;;;;;;17.40;15.73;;;17.90;99.90;;;;;;10309906;28;20675;-83
2022/05/02 08:43:47;;;;;;;20.07;18.27;;;18.10;99.90;;;;;;10301539;28;20734;-84
2022/05/02 08:49:37;;;;;;;17.33;15.63;;;18.20;99.90;;;;;;10313422;28;20230;-84
2022/05/02 08:55:01;;;;;;;14.90;13.60;;;18.30;99.90;;;;;;10341059;28;20223;-84
2022/05/02 09:00:07;;;;;;;16.27;14.87;;;18.70;99.90;;;;;;10332226;28;20231;-83
2022/05/02 09:05:42;;;;;;;16.40;15.00;;;19.10;99.90;;;;;;10331378;28;20223;-83
2022/05/02 09:11:09;;;;;;;15.93;14.53;;;19.10;99.90;;;;;;10327164;28;20195;-83
2022/05/02 09:16:40;;;;;;;15.40;13.77;;;19.10;99.90;;;;;;10333874;28;20750;-83
2022/05/02 09:22:22;;;;;;;15.43;14.00;;;19.50;99.90;;;;;;10337573;28;20223;-83
2022/05/02 09:27:55;;;;;;;18.10;16.30;;;19.80;99.90;;;;;;10289042;28;20198;-83
2022/05/02 09:33:29;;;;;;;17.10;15.53;;;19.70;98.40;;;;;;10338330;28;20343;-82
2022/05/02 09:38:46;;;;;;;13.77;12.57;;;19.80;99.00;;;;;;10318475;28;20637;-81
2022/05/02 09:49:58;;;;;;;13.03;11.83;;;19.80;99.60;;;;;;10344298;28;20209;-84
2022/05/02 10:01:11;;;;;;;12.70;11.57;;;19.80;99.20;;;;;;10307599;28;20313;-80
2022/05/02 10:06:20;;;;;;;14.93;11.10;;;19.70;97.20;;;;;;10330364;28;20581;-82
2022/05/02 10:11:45;;;;;;;12.33;11.23;;;19.80;97.90;;;;;;10342880;28;20214;-81
2022/05/02 10:16:52;;;;;;;11.67;10.77;;;20.00;96.10;;;;;;10321610;28;20214;-81
2022/05/02 10:22:30;;;;;;;10.43;9.63;;;19.90;98.00;;;;;;10323469;28;20273;-81
2022/05/02 10:27:45;;;;;;;10.33;9.43;;;19.70;98.20;;;;;;10337452;28;20249;-81
2022/05/02 10:33:01;;;;;;;9.77;8.97;;;19.60;96.60;;;;;;10320333;28;20225;-81
2022/05/02 10:38:05;;;;;;;9.57;8.80;;;19.60;93.30;;;;;;10353792;28;20202;-81
2022/05/02 10:43:09;;;;;;;8.40;7.80;;;19.60;96.10;;;;;;10320286;28;20219;-81
2022/05/02 10:48:26;;;;;;;10.37;9.37;;;19.60;93.60;;;;;;10336854;28;20273;-81
2022/05/02 10:53:46;;;;;;;8.43;7.83;;;19.50;95.00;;;;;;10325840;28;20276;-81
2022/05/02 10:58:49;;;;;;;6.50;6.10;;;19.50;97.10;;;;;;10333282;28;20202;-81
2022/05/02 11:04:04;;;;;;;8.83;8.03;;;19.50;96.60;;;;;;10337972;28;20215;-82
2022/05/02 11:09:11;;;;;;;8.70;8.00;;;19.50;92.30;;;;;;10332566;28;20195;-81
2022/05/02 11:14:26;;;;;;;8.00;7.30;;;19.30;93.10;;;;;;10332123;28;20581;-80
2022/05/02 11:25:06;;;;;;;7.20;6.70;;;19.20;93.70;;;;;;10326897;28;20231;-83
2022/05/02 11:30:09;;;;;;;7.80;7.20;;;19.30;92.30;;;;;;10341006;28;20206;-81
2022/05/02 11:35:17;;;;;;;7.60;6.90;;;19.40;90.50;;;;;;10348690;23;20237;-80
2022/05/02 11:40:27;;;;;;;8.00;7.30;;;19.40;92.90;;;;;;10343639;28;20199;-80
2022/05/02 11:45:43;;;;;;;7.30;6.80;;;19.60;92.80;;;;;;10325100;28;20223;-79
2022/05/02 11:50:48;;;;;;;8.20;7.60;;;19.80;95.30;;;;;;10347146;28;20253;-80
2022/05/02 11:55:53;;;;;;;7.03;6.53;;;19.90;92.60;;;;;;10341430;28;20234;-80
2022/05/02 12:01:02;;;;;;;7.90;7.30;;;19.90;94.50;;;;;;10346662;28;20274;-80
2022/05/02 12:06:15;;;;;;;8.87;8.13;;;19.80;97.10;;;;;;10341478;28;20223;-80
2022/05/02 12:11:17;;;;;;;7.83;7.27;;;19.70;94.30;;;;;;10343051;28;20204;-79
2022/05/02 12:16:20;;;;;;;6.53;6.03;;;19.70;94.40;;;;;;10340634;28;20223;-79
2022/05/02 12:21:31;;;;;;;7.57;6.97;;;19.70;97.20;;;;;;10341666;28;20279;-79
2022/05/02 12:26:36;;;;;;;6.53;6.03;;;19.80;95.20;;;;;;10337405;28;20223;-78
2022/05/02 12:31:39;;;;;;;6.40;5.90;;;19.80;94.80;;;;;;10339282;28;20199;-80
2022/05/02 12:36:54;;;;;;;6.43;6.03;;;19.90;95.20;;;;;;10338895;28;20223;-79
2022/05/02 12:42:15;;;;;;;6.67;6.07;;;20.10;92.10;;;;;;10331437;28;20752;-79
2022/05/02 12:47:20;;;;;;;6.50;6.10;;;20.20;95.10;;;;;;10327415;28;20203;-79
2022/05/02 12:52:27;;;;;;;7.00;6.50;;;20.10;95.60;;;;;;10344688;28;20217;-79
2022/05/02 13:03:24;;;;;;;6.30;5.80;;;20.10;94.60;;;;;;10340664;28;20230;-78
2022/05/02 13:08:35;;;;;;;7.33;6.27;;;20.10;94.40;;;;;;10330433;28;20813;-79
2022/05/02 13:13:45;;;;;;;6.07;5.67;;;20.20;94.40;;;;;;10336297;28;20254;-79
2022/05/02 13:18:49;;;;;;;5.17;4.87;;;20.20;93.40;;;;;;10343400;28;20336;-78
2022/05/02 13:23:56;;;;;;;6.00;5.60;;;20.30;93.60;;;;;;10319001;28;20278;-79
2022/05/02 13:29:03;;;;;;;5.90;5.50;;;20.10;93.00;;;;;;10334258;28;20584;-78
2022/05/02 13:34:08;;;;;;;5.30;4.90;;;20.00;91.00;;;;;;10336171;28;20223;-78
2022/05/02 13:39:20;;;;;;;6.77;6.27;;;20.10;94.50;;;;;;10331999;28;20204;-78
2022/05/02 13:44:29;;;;;;;6.17;5.67;;;20.20;90.80;;;;;;10334428;28;20227;-78
2022/05/02 13:49:41;;;;;;;5.60;5.20;;;20.20;92.10;;;;;;10333337;28;20207;-79
2022/05/02 13:54:52;;;;;;;5.90;5.50;;;20.20;92.00;;;;;;10333765;28;20222;-79
2022/05/02 14:00:37;;;;;;;5.57;5.27;;;20.20;91.10;;;;;;10330457;28;20231;-79
2022/05/02 14:05:42;;;;;;;5.83;5.43;;;20.10;93.80;;;;;;10330213;28;20306;-78
2022/05/02 14:10:58;;;;;;;6.37;5.87;;;20.10;93.90;;;;;;10319930;28;20207;-78
2022/05/02 14:16:05;;;;;;;5.70;5.30;;;19.90;92.90;;;;;;10331820;28;20734;-78
2022/05/02 14:21:10;;;;;;;6.07;5.67;;;19.60;93.10;;;;;;10323078;28;20199;-77
2022/05/02 14:26:14;;;;;;;5.63;5.27;;;19.50;91.00;;;;;;10322161;28;20218;-80
2022/05/02 14:31:17;;;;;;;5.00;4.60;;;19.60;96.00;;;;;;10312137;28;20246;-78
2022/05/02 14:36:19;;;;;;;5.43;5.03;;;19.70;94.20;;;;;;10327457;28;20269;-78
2022/05/02 14:41:24;;;;;;;5.37;4.90;;;19.90;94.30;;;;;;10303342;28;20750;-78
2022/05/02 14:46:28;;;;;;;5.47;5.13;;;20.00;94.80;;;;;;10325563;28;20362;-78
2022/05/02 14:51:38;;;;;;;5.40;5.10;;;20.00;95.00;;;;;;10303599;28;20238;-78
2022/05/02 14:56:44;;;;;;;5.90;5.30;;;20.00;93.90;;;;;;10327085;28;20314;-78
2022/05/02 15:01:50;;;;;;;5.27;4.93;;;20.00;91.10;;;;;;10326182;28;20207;-78
2022/05/02 15:06:59;;;;;;;5.27;4.97;;;20.00;90.40;;;;;;10330264;28;20564;-79
2022/05/02 15:12:10;;;;;;;5.97;5.47;;;19.90;90.00;;;;;;10321464;28;20573;-78
2022/05/02 15:17:26;;;;;;;5.80;5.40;;;19.80;89.70;;;;;;10338987;28;20281;-77
2022/05/02 15:22:31;;;;;;;5.40;5.00;;;19.80;94.60;;;;;;10314090;28;20232;-78
2022/05/02 15:38:24;;;;;;;6.40;5.90;;;19.60;94.10;;;;;;10319717;28;20279;-79
2022/05/02 15:43:31;;;;;;;7.20;6.60;;;19.60;93.90;;;;;;10326626;28;20289;-80
2022/05/02 15:48:34;;;;;;;5.53;5.23;;;19.60;92.70;;;;;;10315849;28;20215;-77
2022/05/02 15:53:36;;;;;;;6.40;5.93;;;19.60;91.50;;;;;;10319622;28;20219;-79
2022/05/02 15:59:02;;;;;;;5.50;5.20;;;19.60;92.10;;;;;;10322633;28;20207;-77
2022/05/02 16:04:12;;;;;;;4.90;4.60;;;19.60;93.00;;;;;;10288066;28;20650;-78
2022/05/02 16:14:41;;;;;;;6.00;5.60;;;19.50;93.40;;;;;;10317352;28;20215;-78
2022/05/02 16:19:44;;;;;;;5.63;5.23;;;19.50;94.40;;;;;;10318079;28;20203;-78
2022/05/02 16:24:48;;;;;;;6.83;6.40;;;19.50;94.60;;;;;;10329816;28;20273;-78
2022/05/02 16:29:59;;;;;;;7.60;7.10;;;19.50;92.70;;;;;;10311292;28;20195;-78
2022/05/02 16:35:08;;;;;;;7.43;6.80;;;19.50;91.60;;;;;;10333159;28;20703;-78
2022/05/02 16:40:13;;;;;;;6.37;5.87;;;19.60;91.50;;;;;;10336992;28;20204;-78
2022/05/02 16:45:16;;;;;;;7.50;6.80;;;19.60;92.70;;;;;;10321974;28;20229;-78
2022/05/02 16:50:32;;;;;;;6.83;6.37;;;19.50;92.00;;;;;;10306606;28;20261;-78
2022/05/02 16:55:37;;;;;;;7.33;6.63;;;19.50;95.20;;;;;;10312098;28;20214;-78
2022/05/02 17:00:51;;;;;;;7.50;6.90;;;19.50;94.80;;;;;;10332671;28;20545;-78
2022/05/02 17:06:00;;;;;;;6.50;6.00;;;19.40;95.10;;;;;;10339281;28;20222;-78
2022/05/02 17:11:02;;;;;;;6.87;6.37;;;19.40;95.50;;;;;;10323962;28;20199;-78
2022/05/02 17:16:11;;;;;;;7.10;6.60;;;19.30;97.00;;;;;;10319095;28;20219;-77
2022/05/02 17:21:15;;;;;;;7.07;6.67;;;19.10;96.20;;;;;;10322986;28;20199;-78
2022/05/02 17:26:18;;;;;;;8.27;7.57;;;19.00;97.80;;;;;;10320376;28;20227;-77
2022/05/02 17:31:24;;;;;;;7.40;6.87;;;18.90;97.00;;;;;;10322260;28;20249;-78
2022/05/02 17:36:26;;;;;;;7.70;7.10;;;18.80;94.80;;;;;;10315066;28;20230;-79
2022/05/02 17:41:29;;;;;;;7.60;7.00;;;18.70;94.60;;;;;;10313436;28;20239;-78
2022/05/02 17:46:36;;;;;;;8.13;7.57;;;18.60;95.60;;;;;;10325826;28;20227;-78
2022/05/02 17:51:41;;;;;;;8.77;8.07;;;18.50;96.70;;;;;;10326010;28;20203;-78
2022/05/02 17:56:44;;;;;;;9.20;8.30;;;18.40;95.00;;;;;;10323976;28;20314;-79
2022/05/02 18:02:00;;;;;;;7.90;7.40;;;18.30;95.20;;;;;;10316604;28;20273;-79
2022/05/02 18:07:11;;;;;;;8.30;7.70;;;18.20;97.70;;;;;;10314495;28;20658;-79
2022/05/02 18:12:14;;;;;;;10.30;9.50;;;18.10;98.00;;;;;;10307155;28;20239;-77
2022/05/02 18:17:33;;;;;;;10.93;9.70;;;18.00;98.50;;;;;;10316188;28;20207;-79
2022/05/02 18:22:37;;;;;;;9.83;9.07;;;17.90;97.90;;;;;;10313428;28;20231;-78
2022/05/02 18:27:47;;;;;;;10.70;9.77;;;17.80;99.50;;;;;;10297143;28;20203;-78
2022/05/02 18:32:52;;;;;;;9.43;8.73;;;17.70;99.90;;;;;;10313601;28;20231;-77
2022/05/02 18:38:03;;;;;;;10.17;9.47;;;17.70;99.90;;;;;;10320875;28;20206;-79
2022/05/02 18:43:10;;;;;;;12.40;11.17;;;17.50;99.90;;;;;;10315481;28;20635;-78
2022/05/02 18:53:35;;;;;;;10.27;9.30;;;17.30;99.90;;;;;;10304794;28;20234;-77
2022/05/02 18:58:42;;;;;;;10.23;9.33;;;17.10;99.90;;;;;;10319634;28;20565;-77
2022/05/02 19:03:50;;;;;;;10.87;9.87;;;17.10;99.90;;;;;;10317781;28;20257;-79
2022/05/02 19:08:55;;;;;;;10.97;10.07;;;17.00;99.90;;;;;;10302190;28;20301;-78
2022/05/02 19:14:02;;;;;;;10.57;9.63;;;16.90;99.90;;;;;;10309172;28;20247;-79
2022/05/02 19:19:08;;;;;;;10.93;9.93;;;16.80;99.90;;;;;;10296251;28;20207;-77
2022/05/02 19:24:23;;;;;;;11.27;10.37;;;16.70;99.90;;;;;;10309157;28;20229;-77
2022/05/02 19:29:32;;;;;;;10.00;9.30;;;16.60;99.90;;;;;;10315178;28;20205;-78
2022/05/02 19:40:05;;;;;;;9.30;8.60;;;16.40;99.90;;;;;;10323003;28;20199;-79
2022/05/02 19:45:08;;;;;;;10.33;9.53;;;16.30;99.90;;;;;;10333773;28;20223;-77
2022/05/02 19:50:12;;;;;;;10.43;9.63;;;16.20;99.90;;;;;;10333356;28;20198;-78
2022/05/02 19:55:17;;;;;;;10.53;9.67;;;16.10;99.90;;;;;;10321609;28;20223;-78
2022/05/02 20:00:19;;;;;;;10.07;9.17;;;16.00;99.90;;;;;;10333201;28;20306;-78
2022/05/02 20:05:23;;;;;;;11.10;10.00;;;15.90;99.90;;;;;;10318279;28;20250;-78
2022/05/02 20:10:25;;;;;;;10.77;9.93;;;15.90;99.90;;;;;;10314711;28;20274;-77
2022/05/02 20:15:28;;;;;;;10.63;9.80;;;15.80;99.90;;;;;;10331939;28;20717;-78
2022/05/02 20:20:32;;;;;;;10.40;9.50;;;15.70;99.90;;;;;;10325804;28;20287;-77
2022/05/02 20:25:35;;;;;;;10.77;9.87;;;15.70;99.90;;;;;;10330486;28;20289;-78
2022/05/02 20:30:39;;;;;;;9.60;8.70;;;15.60;99.90;;;;;;10329629;28;20203;-78
2022/05/02 20:41:04;;;;;;;10.57;9.60;;;15.40;99.90;;;;;;10333051;28;20206;-78
2022/05/02 20:46:08;;;;;;;10.00;9.20;;;15.40;99.90;;;;;;10331435;28;20955;-79
2022/05/02 20:51:12;;;;;;;9.70;8.90;;;15.30;99.90;;;;;;10318157;28;20204;-79
2022/05/02 20:56:15;;;;;;;9.23;8.53;;;15.30;99.90;;;;;;10326424;28;20650;-77
2022/05/02 21:01:17;;;;;;;8.90;8.30;;;15.20;99.90;;;;;;10303900;28;20339;-78
2022/05/02 21:06:21;;;;;;;10.57;8.97;;;15.20;99.90;;;;;;10325622;28;20354;-79
2022/05/02 21:11:39;;;;;;;9.33;8.53;;;15.20;99.90;;;;;;10328770;28;20217;-76
2022/05/02 21:16:48;;;;;;;9.17;8.57;;;15.10;99.90;;;;;;10332157;28;20601;-78
2022/05/02 21:22:03;;;;;;;9.03;7.80;;;15.10;99.90;;;;;;10333483;28;20376;-79
2022/05/02 21:27:12;;;;;;;8.67;8.07;;;15.10;99.90;;;;;;10333119;28;20718;-76
2022/05/02 21:32:23;;;;;;;9.13;8.43;;;15.00;99.90;;;;;;10328271;28;20595;-79
2022/05/02 21:37:29;;;;;;;7.67;7.17;;;14.90;99.90;;;;;;10312228;28;20211;-77
2022/05/02 21:42:35;;;;;;;8.00;7.40;;;14.90;99.90;;;;;;10322365;28;20224;-77
2022/05/02 21:47:37;;;;;;;8.90;8.30;;;14.80;99.90;;;;;;10330330;28;20208;-78
2022/05/02 21:52:41;;;;;;;9.03;8.30;;;14.80;99.90;;;;;;10316785;28;20348;-78
2022/05/02 21:57:43;;;;;;;9.03;8.20;;;14.80;99.90;;;;;;10329644;28;20207;-78
2022/05/02 22:02:45;;;;;;;8.07;7.47;;;14.80;99.90;;;;;;10332326;28;20760;-78
2022/05/02 22:07:50;;;;;;;8.43;7.73;;;14.70;99.90;;;;;;10318890;28;20203;-78
2022/05/02 22:12:53;;;;;;;8.37;7.77;;;14.70;99.90;;;;;;10320449;28;20633;-78
2022/05/02 22:17:56;;;;;;;8.43;7.87;;;14.60;99.90;;;;;;10341897;28;20195;-78
2022/05/02 22:22:59;;;;;;;8.90;7.60;;;14.50;99.90;;;;;;10318117;28;20277;-77
2022/05/02 22:28:01;;;;;;;8.13;7.57;;;14.50;99.90;;;;;;10328408;28;20235;-77
2022/05/02 22:33:03;;;;;;;8.50;7.90;;;14.40;99.90;;;;;;10326982;28;20223;-78
2022/05/02 22:38:07;;;;;;;9.00;8.27;;;14.40;99.90;;;;;;10339787;28;20196;-77
2022/05/02 22:43:09;;;;;;;8.27;7.67;;;14.40;99.90;;;;;;10329265;28;20224;-77
2022/05/02 22:48:11;;;;;;;9.20;8.50;;;14.40;99.90;;;;;;10327956;28;20282;-78
2022/05/02 22:53:15;;;;;;;8.60;7.90;;;14.40;99.90;;;;;;10320845;28;20277;-77
2022/05/02 22:58:31;;;;;;;9.73;8.93;;;14.50;99.90;;;;;;10315494;28;20358;-78
2022/05/02 23:03:44;;;;;;;9.50;8.70;;;14.50;99.90;;;;;;10328221;28;20254;-78
2022/05/02 23:08:51;;;;;;;9.23;8.40;;;14.50;99.90;;;;;;10336402;28;20321;-79
2022/05/02 23:13:56;;;;;;;10.80;9.90;;;14.50;99.90;;;;;;10313045;28;20207;-78
2022/05/02 23:18:59;;;;;;;10.13;8.80;;;14.60;99.90;;;;;;10328818;28;20199;-79
2022/05/02 23:24:03;;;;;;;10.13;9.37;;;14.60;99.90;;;;;;10323062;28;20226;-80
2022/05/02 23:29:06;;;;;;;9.30;8.60;;;14.70;99.90;;;;;;10311230;28;20191;-80
2022/05/02 23:34:18;;;;;;;9.53;8.83;;;14.70;99.90;;;;;;10370778;23;20249;-84
2022/05/02 23:39:27;;;;;;;9.80;9.00;;;14.70;99.90;;;;;;10355977;28;20608;-82
2022/05/02 23:44:52;;;;;;;10.57;9.43;;;14.80;99.90;;;;;;10367672;28;20693;-84
2022/05/02 23:50:00;;;;;;;8.20;7.60;;;14.80;99.90;;;;;;10373934;28;20225;-82
2022/05/02 23:55:06;;;;;;;9.83;8.80;;;14.80;99.90;;;;;;10379298;28;20222;-84
